^^
Saratoga-Weather Station Historical Data
Daily Summary for August 18, 2021 Units:  Metric    English   Both
Daily Weekly Monthly Yearly Custom
  High: Low: Average:
Temperature: 6 °C 3 °C 4.4 °C
Dew Point: 4.5 °C 2.4 °C 3.5 °C
Humidity: 97% 88% 94%
Wind Speed: 14.5km/h 0km/h 2.3km/h
Wind Gust: 14.5km/h - -
Wind- - SE
Pressure: 1037.2 hPa 1034.9 hPa -
Precipitation: 0.0 mm    
Historical Graphs
 
 
Tabular Data for August 18, 2021
Time Temperature Dew Point Pressure Wind Wind Speed Wind Gust Humidity Rainfall Rate (Hourly) solar
00:01 5.4 °C 4.2 °C 1037.2 hPa Calm   3.2 km/h 92% 0.0 mm 0 W/m2
00:06 5.4 °C 4.2 °C 1037.2 hPa Calm   3.2 km/h 92% 0.0 mm 0 W/m2
00:11 5.4 °C 4.2 °C 1037.2 hPa Calm     92% 0.0 mm 0 W/m2
00:16 5.4 °C 4.2 °C 1037.2 hPa Calm     92% 0.0 mm 0 W/m2
00:21 5.4 °C 4.2 °C 1037.2 hPa Calm     92% 0.0 mm 0 W/m2
00:26 5.4 °C 4.2 °C 1037.2 hPa Calm     92% 0.0 mm 0 W/m2
00:31 5.5 °C 4.3 °C 1037.2 hPa Calm     92% 0.0 mm 0 W/m2
00:36 5.5 °C 4.3 °C 1037.2 hPa Calm     92% 0.0 mm 0 W/m2
00:41 5.6 °C 4.2 °C 1037.2 hPa Calm   3.2 km/h 91% 0.0 mm 0 W/m2
00:46 5.6 °C 4.2 °C 1037.2 hPa Calm   1.6 km/h 91% 0.0 mm 0 W/m2
00:51 5.6 °C 4.2 °C 1037.2 hPa Calm   3.2 km/h 91% 0.0 mm 0 W/m2
00:56 5.6 °C 4.2 °C 1037.2 hPa Calm   1.6 km/h 91% 0.0 mm 0 W/m2
01:02 5.7 °C 4.3 °C 1037.2 hPa Calm   1.6 km/h 91% 0.0 mm 0 W/m2
01:07 5.7 °C 4.2 °C 1037.2 hPa Calm   3.2 km/h 90% 0.0 mm 0 W/m2
01:12 5.8 °C 4.3 °C 1037.2 hPa ENE 3.2 km/h 3.2 km/h 90% 0.0 mm 0 W/m2
01:17 5.8 °C 4.3 °C 1037.2 hPa Calm   3.2 km/h 90% 0.0 mm 0 W/m2
01:22 5.8 °C 4.3 °C 1037.2 hPa ESE 1.4 km/h 8 km/h 90% 0.0 mm 0 W/m2
01:27 5.8 °C 4.1 °C 1037.2 hPa East 3.2 km/h 3.2 km/h 89% 0.0 mm 0 W/m2
01:32 5.9 °C 4.2 °C 1037.2 hPa ENE 1.4 km/h 8 km/h 89% 0.0 mm 0 W/m2
01:37 5.9 °C 4.2 °C 1037.2 hPa Calm   3.2 km/h 89% 0.0 mm 0 W/m2
01:42 5.9 °C 4.2 °C 1037.2 hPa ENE 3.2 km/h 4.8 km/h 89% 0.0 mm 0 W/m2
01:47 5.9 °C 4.2 °C 1037.2 hPa ESE 3.2 km/h 4.8 km/h 89% 0.0 mm 0 W/m2
01:52 5.9 °C 4.2 °C 1037.2 hPa NE 1.4 km/h 4.8 km/h 89% 0.0 mm 0 W/m2
01:57 5.9 °C 4.2 °C 1036.9 hPa Calm     89% 0.0 mm 0 W/m2
02:02 5.9 °C 4.2 °C 1036.9 hPa Calm   1.6 km/h 89% 0.0 mm 0 W/m2
02:07 5.8 °C 4.1 °C 1036.9 hPa Calm   3.2 km/h 89% 0.0 mm 0 W/m2
02:12 5.7 °C 4 °C 1036.9 hPa NNE 1.4 km/h 4.8 km/h 89% 0.0 mm 0 W/m2
02:17 5.6 °C 3.9 °C 1036.9 hPa NE 1.4 km/h 4.8 km/h 89% 0.0 mm 0 W/m2
02:22 5.4 °C 3.7 °C 1036.9 hPa Calm     89% 0.0 mm 0 W/m2
02:27 5.2 °C 3.7 °C 1036.9 hPa Calm   4.8 km/h 90% 0.0 mm 0 W/m2
02:32 5.1 °C 3.6 °C 1036.9 hPa SE 1.4 km/h 1.6 km/h 90% 0.0 mm 0 W/m2
02:37 4.8 °C 3.3 °C 1037.2 hPa Calm     90% 0.0 mm 0 W/m2
02:42 4.7 °C 3.2 °C 1037.2 hPa Calm   1.6 km/h 90% 0.0 mm 0 W/m2
02:47 4.4 °C 3.1 °C 1036.9 hPa WNW 3.2 km/h 6.4 km/h 91% 0.0 mm 0 W/m2
02:52 4.3 °C 3 °C 1037.2 hPa Calm     91% 0.0 mm 0 W/m2
02:57 4.1 °C 2.9 °C 1037.2 hPa Calm   4.8 km/h 92% 0.0 mm 0 W/m2
03:02 3.9 °C 2.7 °C 1037.2 hPa NW 1.4 km/h 1.6 km/h 92% 0.0 mm 0 W/m2
03:07 3.8 °C 2.6 °C 1036.9 hPa Calm   3.2 km/h 92% 0.0 mm 0 W/m2
03:12 3.7 °C 2.7 °C 1036.9 hPa North 1.4 km/h 4.8 km/h 93% 0.0 mm 0 W/m2
03:33 3.4 °C 2.5 °C 1036.9 hPa Calm   4.8 km/h 94% 0.0 mm 0 W/m2
03:38 3.4 °C 2.5 °C 1036.9 hPa NNW 3.2 km/h 4.8 km/h 94% 0.0 mm 0 W/m2
03:43 3.4 °C 2.5 °C 1036.9 hPa Calm   3.2 km/h 94% 0.0 mm 0 W/m2
03:48 3.4 °C 2.7 °C 1036.9 hPa East 1.4 km/h 3.2 km/h 95% 0.0 mm 0 W/m2
03:53 3.5 °C 2.8 °C 1036.9 hPa ENE 1.4 km/h 3.2 km/h 95% 0.0 mm 0 W/m2
03:58 3.6 °C 2.9 °C 1036.9 hPa ENE 1.4 km/h 4.8 km/h 95% 0.0 mm 0 W/m2
04:03 3.6 °C 2.9 °C 1036.9 hPa NNE 3.2 km/h 4.8 km/h 95% 0.0 mm 0 W/m2
04:08 3.6 °C 2.9 °C 1036.9 hPa Calm   1.6 km/h 95% 0.0 mm 0 W/m2
04:13 3.6 °C 2.9 °C 1036.9 hPa Calm   1.6 km/h 95% 0.0 mm 0 W/m2
04:18 3.7 °C 3 °C 1036.9 hPa ESE 1.4 km/h 3.2 km/h 95% 0.0 mm 0 W/m2
04:23 3.7 °C 3 °C 1036.9 hPa Calm   6.4 km/h 95% 0.0 mm 0 W/m2
04:28 3.7 °C 3 °C 1036.9 hPa NW 3.2 km/h 4.8 km/h 95% 0.0 mm 0 W/m2
04:33 3.7 °C 3 °C 1036.9 hPa NNE 1.4 km/h 3.2 km/h 95% 0.0 mm 0 W/m2
04:38 3.7 °C 3 °C 1036.9 hPa NNE 1.4 km/h 3.2 km/h 95% 0.0 mm 0 W/m2
04:43 3.8 °C 3.1 °C 1036.9 hPa Calm   4.8 km/h 95% 0.0 mm 0 W/m2
04:48 3.8 °C 3.2 °C 1036.9 hPa North 4.7 km/h 6.4 km/h 96% 0.0 mm 0 W/m2
04:53 3.8 °C 3.2 °C 1036.9 hPa NE 3.2 km/h 6.4 km/h 96% 0.0 mm 0 W/m2
04:58 3.8 °C 3.2 °C 1036.9 hPa NE 3.2 km/h 3.2 km/h 96% 0.0 mm 0 W/m2
05:03 3.8 °C 3.2 °C 1036.9 hPa NNE 3.2 km/h 3.2 km/h 96% 0.0 mm 0 W/m2
05:08 3.8 °C 3.2 °C 1036.9 hPa NNW 4.7 km/h 4.8 km/h 96% 0.0 mm 0 W/m2
05:13 3.8 °C 3.2 °C 1036.9 hPa Calm   8 km/h 96% 0.0 mm 0 W/m2
05:18 3.9 °C 3.3 °C 1036.9 hPa NW 3.2 km/h 11.3 km/h 96% 0.0 mm 0 W/m2
05:23 3.9 °C 3.3 °C 1036.9 hPa ENE 3.2 km/h 4.8 km/h 96% 0.0 mm 0 W/m2
05:28 3.9 °C 3.2 °C 1036.9 hPa Calm     95% 0.0 mm 0 W/m2
05:33 3.9 °C 3.2 °C 1036.9 hPa ENE 3.2 km/h 12.9 km/h 95% 0.0 mm 0 W/m2
05:52 4.1 °C 3.4 °C 1036.9 hPa NNW 4.7 km/h 6.4 km/h 95% 0.0 mm 0 W/m2
05:57 4.1 °C 3.4 °C 1036.9 hPa Calm   8 km/h 95% 0.0 mm 0 W/m2
06:03 4.1 °C 3.4 °C 1036.9 hPa Calm   4.8 km/h 95% 0.0 mm 0 W/m2
06:08 4.1 °C 3.4 °C 1036.9 hPa ESE 3.2 km/h 6.4 km/h 95% 0.0 mm 0 W/m2
06:13 4.1 °C 3.4 °C 1037.2 hPa SE 1.4 km/h 3.2 km/h 95% 0.0 mm 0 W/m2
06:18 4.1 °C 3.4 °C 1037.2 hPa East 4.7 km/h 6.4 km/h 95% 0.0 mm 0 W/m2
06:23 4.1 °C 3.4 °C 1037.2 hPa East 9.7 km/h 11.3 km/h 95% 0.0 mm 0 W/m2
06:28 4.1 °C 3.4 °C 1037.2 hPa East 3.2 km/h 4.8 km/h 95% 0.0 mm 0 W/m2
06:33 4.1 °C 3.4 °C 1037.2 hPa East 1.4 km/h 6.4 km/h 95% 0.0 mm 0 W/m2
06:38 4.1 °C 3.4 °C 1037.2 hPa East 4.7 km/h 4.8 km/h 95% 0.0 mm 0 W/m2
06:43 4.1 °C 3.4 °C 1037.2 hPa Calm   3.2 km/h 95% 0.0 mm 0 W/m2
06:48 4.1 °C 3.4 °C 1037.2 hPa East 1.4 km/h 3.2 km/h 95% 0.0 mm 0 W/m2
06:53 4.1 °C 3.4 °C 1037.2 hPa East 1.4 km/h 4.8 km/h 95% 0.0 mm 0 W/m2
06:58 4 °C 3.3 °C 1037.2 hPa ESE 3.2 km/h 6.4 km/h 95% 0.0 mm 0 W/m2
07:03 4 °C 3.3 °C 1037.2 hPa East 1.4 km/h 3.2 km/h 95% 0.0 mm 0 W/m2
07:08 3.9 °C 3.2 °C 1037.2 hPa Calm   6.4 km/h 95% 0.0 mm 0 W/m2
07:13 3.9 °C 3.2 °C 1037.2 hPa ENE 3.2 km/h 3.2 km/h 95% 0.0 mm 0 W/m2
07:18 3.9 °C 3.2 °C 1037.2 hPa ENE 3.2 km/h 3.2 km/h 95% 0.0 mm 0 W/m2
07:23 3.9 °C 3.2 °C 1037.2 hPa Calm   4.8 km/h 95% 0.0 mm 0 W/m2
07:28 3.9 °C 3.2 °C 1037.2 hPa Calm   3.2 km/h 95% 0.0 mm 0 W/m2
07:33 3.9 °C 3.2 °C 1037.2 hPa Calm   3.2 km/h 95% 0.0 mm 0 W/m2
07:38 3.9 °C 3.2 °C 1037.2 hPa East 4.7 km/h 4.8 km/h 95% 0.0 mm 0 W/m2
07:43 3.9 °C 3.2 °C 1037.2 hPa East 3.2 km/h 6.4 km/h 95% 0.0 mm 0 W/m2
07:48 3.9 °C 3.2 °C 1037.2 hPa East 3.2 km/h 4.8 km/h 95% 0.0 mm 0 W/m2
07:53 3.9 °C 3.2 °C 1036.9 hPa Calm     95% 0.0 mm 0 W/m2
07:58 3.9 °C 3.2 °C 1036.9 hPa East 3.2 km/h 4.8 km/h 95% 0.0 mm 0 W/m2
08:03 3.9 °C 3.2 °C 1036.9 hPa ESE 1.4 km/h 3.2 km/h 95% 0.0 mm 0 W/m2
08:08 3.8 °C 3.1 °C 1036.9 hPa East 6.4 km/h 6.4 km/h 95% 0.0 mm 0 W/m2
08:13 3.8 °C 3.1 °C 1036.9 hPa Calm   1.6 km/h 95% 0.0 mm 0 W/m2
08:18 3.8 °C 3.1 °C 1036.9 hPa Calm   3.2 km/h 95% 0.0 mm 0 W/m2
08:23 3.8 °C 3.1 °C 1036.9 hPa Calm   1.6 km/h 95% 0.0 mm 0 W/m2
08:28 3.8 °C 3.1 °C 1036.9 hPa Calm   3.2 km/h 95% 0.0 mm 0 W/m2
08:33 3.8 °C 3.1 °C 1036.9 hPa Calm   1.6 km/h 95% 0.0 mm 5 W/m2
08:38 3.8 °C 3.1 °C 1036.9 hPa Calm   3.2 km/h 95% 0.0 mm 7 W/m2
08:43 3.8 °C 3.1 °C 1036.9 hPa Calm     95% 0.0 mm 11 W/m2
08:48 3.8 °C 3.1 °C 1036.9 hPa Calm   1.6 km/h 95% 0.0 mm 16 W/m2
08:53 3.8 °C 3.1 °C 1036.9 hPa East 1.4 km/h 3.2 km/h 95% 0.0 mm 21 W/m2
08:58 3.8 °C 3.1 °C 1036.9 hPa ENE 1.4 km/h 4.8 km/h 95% 0.0 mm 26 W/m2
09:03 3.8 °C 3.1 °C 1036.9 hPa East 1.4 km/h 6.4 km/h 95% 0.0 mm 35 W/m2
09:08 3.8 °C 3.1 °C 1036.9 hPa ENE 4.7 km/h 4.8 km/h 95% 0.0 mm 47 W/m2
09:13 3.9 °C 3.2 °C 1036.9 hPa Calm   6.4 km/h 95% 0.0 mm 53 W/m2
09:18 3.9 °C 3.2 °C 1036.9 hPa ENE 1.4 km/h 6.4 km/h 95% 0.0 mm 49 W/m2
09:23 3.9 °C 3 °C 1036.9 hPa NE 4.7 km/h 4.8 km/h 94% 0.0 mm 47 W/m2
09:28 3.9 °C 3 °C 1036.9 hPa ENE 1.4 km/h 6.4 km/h 94% 0.0 mm 51 W/m2
09:33 4 °C 3.1 °C 1036.9 hPa ENE 3.2 km/h 4.8 km/h 94% 0.0 mm 47 W/m2
09:38 4 °C 3.1 °C 1036.9 hPa NE 3.2 km/h 3.2 km/h 94% 0.0 mm 35 W/m2
09:43 4 °C 3.1 °C 1036.9 hPa Calm   3.2 km/h 94% 0.0 mm 33 W/m2
09:48 4 °C 3.1 °C 1036.9 hPa ESE 3.2 km/h 6.4 km/h 94% 0.0 mm 33 W/m2
09:53 4 °C 3.1 °C 1036.9 hPa ESE 1.4 km/h 4.8 km/h 94% 0.0 mm 32 W/m2
09:58 4 °C 3.1 °C 1036.9 hPa East 3.2 km/h 6.4 km/h 94% 0.0 mm 28 W/m2
10:03 4.1 °C 3.2 °C 1036.9 hPa NE 1.4 km/h 6.4 km/h 94% 0.0 mm 30 W/m2
10:08 4.1 °C 3.2 °C 1036.9 hPa East 3.2 km/h 4.8 km/h 94% 0.0 mm 32 W/m2
10:13 4.1 °C 3.1 °C 1036.9 hPa East 1.4 km/h 4.8 km/h 93% 0.0 mm 37 W/m2
10:18 4.2 °C 3.3 °C 1036.9 hPa SE 1.4 km/h 6.4 km/h 94% 0.0 mm 33 W/m2
10:23 4.2 °C 3.2 °C 1036.9 hPa ENE 3.2 km/h 4.8 km/h 93% 0.0 mm 33 W/m2
10:28 4.3 °C 3.3 °C 1036.9 hPa Calm   3.2 km/h 93% 0.0 mm 44 W/m2
10:33 4.3 °C 3.3 °C 1036.9 hPa NNW 6.4 km/h 6.4 km/h 93% 0.0 mm 47 W/m2
10:38 4.4 °C 3.4 °C 1036.9 hPa North 6.4 km/h 8 km/h 93% 0.0 mm 42 W/m2
10:43 4.4 °C 3.4 °C 1036.9 hPa Calm   6.4 km/h 93% 0.0 mm 53 W/m2
10:48 4.5 °C 3.3 °C 1036.9 hPa Calm   8 km/h 92% 0.0 mm 65 W/m2
10:53 4.6 °C 3.4 °C 1036.9 hPa Calm   8 km/h 92% 0.0 mm 79 W/m2
11:13 4.9 °C 3.6 °C 1036.9 hPa Calm   1.6 km/h 91% 0.0 mm 83 W/m2
11:18 4.9 °C 3.6 °C 1036.9 hPa Calm   4.8 km/h 91% 0.0 mm 95 W/m2
11:23 5 °C 3.7 °C 1036.6 hPa NE 1.4 km/h 6.4 km/h 91% 0.0 mm 86 W/m2
11:28 5 °C 3.7 °C 1036.6 hPa Calm   3.2 km/h 91% 0.0 mm 90 W/m2
11:33 5 °C 3.5 °C 1036.6 hPa North 1.4 km/h 6.4 km/h 90% 0.0 mm 74 W/m2
11:38 5 °C 3.5 °C 1036.6 hPa West 1.4 km/h 4.8 km/h 90% 0.0 mm 84 W/m2
11:43 5.1 °C 3.6 °C 1036.6 hPa North 1.4 km/h 4.8 km/h 90% 0.0 mm 88 W/m2
11:48 5.1 °C 3.6 °C 1036.6 hPa Calm   6.4 km/h 90% 0.0 mm 83 W/m2
11:53 5.2 °C 3.7 °C 1036.6 hPa East 7.9 km/h 14.5 km/h 90% 0.0 mm 109 W/m2
11:58 5.2 °C 3.7 °C 1036.6 hPa North 3.2 km/h 12.9 km/h 90% 0.0 mm 76 W/m2
12:03 5.3 °C 3.8 °C 1036.2 hPa ENE 3.2 km/h 14.5 km/h 90% 0.0 mm 84 W/m2
12:08 5.3 °C 3.8 °C 1036.2 hPa East 3.2 km/h 6.4 km/h 90% 0.0 mm 105 W/m2
12:13 5.4 °C 3.9 °C 1036.6 hPa ENE 1.4 km/h 6.4 km/h 90% 0.0 mm 118 W/m2
12:18 5.6 °C 4.1 °C 1036.6 hPa NNE 7.9 km/h 8 km/h 90% 0.0 mm 105 W/m2
12:23 5.7 °C 4 °C 1036.6 hPa ENE 9.7 km/h 9.7 km/h 89% 0.0 mm 47 W/m2
12:28 5.7 °C 4 °C 1036.6 hPa ESE 1.4 km/h 3.2 km/h 89% 0.0 mm 63 W/m2
12:33 5.7 °C 4 °C 1036.2 hPa ENE 3.2 km/h 12.9 km/h 89% 0.0 mm 60 W/m2
12:38 5.6 °C 3.8 °C 1036.2 hPa ESE 4.7 km/h 9.7 km/h 88% 0.0 mm 63 W/m2
12:43 5.6 °C 3.9 °C 1036.2 hPa ESE 4.7 km/h 6.4 km/h 89% 0.0 mm 65 W/m2
12:48 5.7 °C 4 °C 1036.2 hPa ENE 6.4 km/h 11.3 km/h 89% 0.0 mm 105 W/m2
12:53 5.7 °C 4 °C 1036.2 hPa NE 4.7 km/h 4.8 km/h 89% 0.0 mm 151 W/m2
12:58 5.9 °C 4.4 °C 1036.2 hPa WNW 3.2 km/h 11.3 km/h 90% 0.0 mm 135 W/m2
13:03 6 °C 4.5 °C 1036.2 hPa NNW 7.9 km/h 9.7 km/h 90% 0.0 mm 148 W/m2
13:08 6 °C 4.3 °C 1035.9 hPa NE 1.4 km/h 4.8 km/h 89% 0.0 mm 144 W/m2
13:13 6 °C 4.3 °C 1035.9 hPa WSW 4.7 km/h 4.8 km/h 89% 0.0 mm 111 W/m2
13:18 6 °C 4.5 °C 1035.9 hPa ENE 14.5 km/h 14.5 km/h 90% 0.0 mm 76 W/m2
13:23 5.9 °C 4.2 °C 1035.9 hPa North 3.2 km/h 6.4 km/h 89% 0.0 mm 65 W/m2
13:28 5.8 °C 4.3 °C 1035.9 hPa East 9.7 km/h 14.5 km/h 90% 0.0 mm 70 W/m2
13:33 5.7 °C 4.2 °C 1035.6 hPa NE 3.2 km/h 4.8 km/h 90% 0.0 mm 70 W/m2
13:38 5.6 °C 4.1 °C 1035.6 hPa East 3.2 km/h 4.8 km/h 90% 0.0 mm 60 W/m2
13:43 5.5 °C 4 °C 1035.6 hPa NE 1.4 km/h 8 km/h 90% 0.0 mm 53 W/m2
13:48 5.4 °C 3.9 °C 1035.6 hPa ENE 1.4 km/h 9.7 km/h 90% 0.0 mm 49 W/m2
13:53 5.4 °C 4 °C 1035.6 hPa North 1.4 km/h 9.7 km/h 91% 0.0 mm 49 W/m2
13:58 5.3 °C 4 °C 1035.6 hPa East 9.7 km/h 9.7 km/h 91% 0.0 mm 49 W/m2
14:03 5.3 °C 4 °C 1035.6 hPa ENE 3.2 km/h 6.4 km/h 91% 0.0 mm 46 W/m2
14:08 5.3 °C 4 °C 1035.6 hPa East 1.4 km/h 3.2 km/h 91% 0.0 mm 49 W/m2
14:13 5.3 °C 4.1 °C 1035.6 hPa ENE 1.4 km/h 8 km/h 92% 0.0 mm 51 W/m2
14:18 5.3 °C 4.1 °C 1035.6 hPa SE 3.2 km/h 6.4 km/h 92% 0.0 mm 47 W/m2
14:23 5.3 °C 4.1 °C 1035.2 hPa ENE 4.7 km/h 8 km/h 92% 0.0 mm 44 W/m2
14:28 5.3 °C 4.1 °C 1035.2 hPa SSE 7.9 km/h 8 km/h 92% 0.0 mm 39 W/m2
14:33 5.3 °C 4.1 °C 1035.2 hPa Calm   3.2 km/h 92% 0.0 mm 32 W/m2
14:38 5.3 °C 4.1 °C 1035.2 hPa ENE 1.4 km/h 4.8 km/h 92% 0.0 mm 30 W/m2
14:43 5.3 °C 4.3 °C 1035.2 hPa North 1.4 km/h 9.7 km/h 93% 0.0 mm 26 W/m2
14:48 5.2 °C 4.2 °C 1035.2 hPa Calm   4.8 km/h 93% 0.0 mm 26 W/m2
14:53 5.1 °C 4.1 °C 1035.2 hPa North 3.2 km/h 9.7 km/h 93% 0.0 mm 25 W/m2
14:59 5.1 °C 4.1 °C 1035.2 hPa SE 4.7 km/h 6.4 km/h 93% 0.0 mm 21 W/m2
15:04 5 °C 4 °C 1035.2 hPa Calm   3.2 km/h 93% 0.0 mm 21 W/m2
15:09 4.9 °C 4 °C 1035.2 hPa NNW 3.2 km/h 4.8 km/h 94% 0.0 mm 21 W/m2
15:14 4.9 °C 4 °C 1035.2 hPa NE 3.2 km/h 6.4 km/h 94% 0.0 mm 19 W/m2
15:19 4.8 °C 3.9 °C 1035.2 hPa NE 6.4 km/h 8 km/h 94% 0.0 mm 18 W/m2
15:24 4.8 °C 3.9 °C 1035.2 hPa West 4.7 km/h 4.8 km/h 94% 0.0 mm 16 W/m2
15:29 4.8 °C 3.9 °C 1035.2 hPa ENE 1.4 km/h 6.4 km/h 94% 0.0 mm 14 W/m2
15:34 4.8 °C 3.9 °C 1035.2 hPa Calm   4.8 km/h 94% 0.0 mm 14 W/m2
15:39 4.8 °C 3.9 °C 1034.9 hPa NE 4.7 km/h 8 km/h 94% 0.0 mm 14 W/m2
15:44 4.7 °C 3.8 °C 1035.2 hPa NNW 3.2 km/h 4.8 km/h 94% 0.0 mm 12 W/m2
15:49 4.7 °C 3.8 °C 1035.2 hPa Calm   4.8 km/h 94% 0.0 mm 11 W/m2
15:54 4.7 °C 4 °C 1034.9 hPa Calm   4.8 km/h 95% 0.0 mm 9 W/m2
15:59 4.7 °C 4 °C 1034.9 hPa ENE 1.4 km/h 11.3 km/h 95% 0.0 mm 9 W/m2
16:17 4.6 °C 3.9 °C 1034.9 hPa NE 4.7 km/h 4.8 km/h 95% 0.0 mm 5 W/m2
16:23 4.6 °C 3.9 °C 1035.2 hPa East 1.4 km/h 6.4 km/h 95% 0.0 mm 0 W/m2
16:28 4.6 °C 3.9 °C 1034.9 hPa NNW 1.4 km/h 6.4 km/h 95% 0.0 mm 0 W/m2
16:33 4.6 °C 3.9 °C 1034.9 hPa NNW 7.9 km/h 9.7 km/h 95% 0.0 mm 0 W/m2
16:38 4.5 °C 3.8 °C 1034.9 hPa NNW 1.4 km/h 4.8 km/h 95% 0.0 mm 0 W/m2
16:43 4.6 °C 3.9 °C 1034.9 hPa NE 9.7 km/h 9.7 km/h 95% 0.0 mm 0 W/m2
16:48 4.5 °C 3.8 °C 1034.9 hPa ENE 4.7 km/h 6.4 km/h 95% 0.0 mm 0 W/m2
16:53 4.5 °C 3.8 °C 1034.9 hPa NE 4.7 km/h 6.4 km/h 95% 0.0 mm 0 W/m2
16:58 4.6 °C 3.9 °C 1034.9 hPa North 6.4 km/h 9.7 km/h 95% 0.0 mm 0 W/m2
17:03 4.6 °C 3.9 °C 1034.9 hPa ENE 4.7 km/h 4.8 km/h 95% 0.0 mm 0 W/m2
17:08 4.6 °C 3.9 °C 1034.9 hPa ENE 6.4 km/h 9.7 km/h 95% 0.0 mm 0 W/m2
17:13 4.6 °C 3.9 °C 1034.9 hPa NNW 1.4 km/h   95% 0.0 mm 0 W/m2
17:18 4.6 °C 3.9 °C 1034.9 hPa ENE 1.4 km/h 6.4 km/h 95% 0.0 mm 0 W/m2
17:23 4.6 °C 3.9 °C 1034.9 hPa Calm   4.8 km/h 95% 0.0 mm 0 W/m2
17:28 4.6 °C 3.9 °C 1034.9 hPa ENE 6.4 km/h 8 km/h 95% 0.0 mm 0 W/m2
17:33 4.6 °C 3.9 °C 1034.9 hPa East 3.2 km/h 6.4 km/h 95% 0.0 mm 0 W/m2
17:38 4.7 °C 4 °C 1034.9 hPa SE 3.2 km/h 4.8 km/h 95% 0.0 mm 0 W/m2
17:43 4.6 °C 3.9 °C 1034.9 hPa Calm   6.4 km/h 95% 0.0 mm 0 W/m2
17:48 4.6 °C 3.9 °C 1034.9 hPa NE 3.2 km/h 6.4 km/h 95% 0.0 mm 0 W/m2
17:53 4.6 °C 3.9 °C 1034.9 hPa East 1.4 km/h 3.2 km/h 95% 0.0 mm 0 W/m2
17:58 4.6 °C 3.9 °C 1034.9 hPa NE 1.4 km/h 11.3 km/h 95% 0.0 mm 0 W/m2
18:03 4.6 °C 3.9 °C 1034.9 hPa NE 3.2 km/h 6.4 km/h 95% 0.0 mm 0 W/m2
18:08 4.5 °C 3.8 °C 1034.9 hPa ENE 6.4 km/h 6.4 km/h 95% 0.0 mm 0 W/m2
18:13 4.4 °C 3.7 °C 1034.9 hPa ESE 4.7 km/h 6.4 km/h 95% 0.0 mm 0 W/m2
18:18 4.4 °C 3.5 °C 1034.9 hPa ENE 3.2 km/h 11.3 km/h 94% 0.0 mm 0 W/m2
18:23 4.3 °C 3.4 °C 1034.9 hPa East 3.2 km/h 4.8 km/h 94% 0.0 mm 0 W/m2
18:28 4.2 °C 3.5 °C 1034.9 hPa East 3.2 km/h 11.3 km/h 95% 0.0 mm 0 W/m2
18:33 4.2 °C 3.5 °C 1034.9 hPa East 4.7 km/h 9.7 km/h 95% 0.0 mm 0 W/m2
18:38 4.2 °C 3.5 °C 1034.9 hPa ENE 1.4 km/h 9.7 km/h 95% 0.0 mm 0 W/m2
18:43 4.1 °C 3.2 °C 1034.9 hPa ESE 4.7 km/h 8 km/h 94% 0.0 mm 0 W/m2
18:48 4.1 °C 3.4 °C 1034.9 hPa Calm   1.6 km/h 95% 0.0 mm 0 W/m2
18:53 4.1 °C 3.4 °C 1034.9 hPa East 1.4 km/h 9.7 km/h 95% 0.0 mm 0 W/m2
18:58 4.1 °C 3.4 °C 1034.9 hPa ENE 6.4 km/h 6.4 km/h 95% 0.0 mm 0 W/m2
19:03 4.1 °C 3.4 °C 1034.9 hPa ESE 4.7 km/h 6.4 km/h 95% 0.0 mm 0 W/m2
19:09 4 °C 3.3 °C 1035.2 hPa SE 4.7 km/h 11.3 km/h 95% 0.0 mm 0 W/m2
19:14 3.9 °C 3.2 °C 1034.9 hPa ENE 4.7 km/h 6.4 km/h 95% 0.0 mm 0 W/m2
19:19 3.9 °C 3.2 °C 1035.2 hPa NE 1.4 km/h 11.3 km/h 95% 0.0 mm 0 W/m2
19:24 3.9 °C 3.2 °C 1035.2 hPa ENE 1.4 km/h 4.8 km/h 95% 0.0 mm 0 W/m2
19:29 3.9 °C 3.2 °C 1035.2 hPa ESE 4.7 km/h 6.4 km/h 95% 0.0 mm 0 W/m2
19:34 3.9 °C 3.2 °C 1035.2 hPa Calm   4.8 km/h 95% 0.0 mm 0 W/m2
19:39 3.9 °C 3.2 °C 1035.2 hPa Calm   3.2 km/h 95% 0.0 mm 0 W/m2
19:44 3.9 °C 3.2 °C 1035.2 hPa Calm   3.2 km/h 95% 0.0 mm 0 W/m2
19:49 3.9 °C 3.2 °C 1035.2 hPa NW 3.2 km/h 6.4 km/h 95% 0.0 mm 0 W/m2
19:54 3.9 °C 3.2 °C 1035.2 hPa NNE 1.4 km/h 3.2 km/h 95% 0.0 mm 0 W/m2
19:59 3.9 °C 3.2 °C 1035.2 hPa North 3.2 km/h 6.4 km/h 95% 0.0 mm 0 W/m2
20:04 3.9 °C 3.2 °C 1035.2 hPa NNW 1.4 km/h 4.8 km/h 95% 0.0 mm 0 W/m2
20:09 3.8 °C 3.2 °C 1035.2 hPa Calm   1.6 km/h 96% 0.0 mm 0 W/m2
20:14 3.8 °C 3.2 °C 1035.2 hPa North 3.2 km/h 3.2 km/h 96% 0.0 mm 0 W/m2
20:19 3.8 °C 3.2 °C 1034.9 hPa NE 3.2 km/h 6.4 km/h 96% 0.0 mm 0 W/m2
20:24 3.8 °C 3.2 °C 1035.2 hPa ESE 4.7 km/h 6.4 km/h 96% 0.0 mm 0 W/m2
20:29 3.8 °C 3.2 °C 1035.2 hPa Calm   3.2 km/h 96% 0.0 mm 0 W/m2
20:34 3.8 °C 3.2 °C 1035.2 hPa North 1.4 km/h 3.2 km/h 96% 0.0 mm 0 W/m2
20:39 3.8 °C 3.2 °C 1035.2 hPa NW 1.4 km/h 3.2 km/h 96% 0.0 mm 0 W/m2
20:44 3.8 °C 3.2 °C 1035.2 hPa Calm   4.8 km/h 96% 0.0 mm 0 W/m2
20:49 3.8 °C 3.2 °C 1035.2 hPa NE 1.4 km/h 8 km/h 96% 0.0 mm 0 W/m2
20:54 3.8 °C 3.2 °C 1035.2 hPa East 3.2 km/h 3.2 km/h 96% 0.0 mm 0 W/m2
20:59 3.8 °C 3.2 °C 1035.2 hPa Calm     96% 0.0 mm 0 W/m2
21:04 3.7 °C 3.1 °C 1035.2 hPa Calm   4.8 km/h 96% 0.0 mm 0 W/m2
21:09 3.7 °C 3.1 °C 1035.2 hPa NE 1.4 km/h 3.2 km/h 96% 0.0 mm 0 W/m2
21:14 3.7 °C 3.1 °C 1035.2 hPa NNW 1.4 km/h 3.2 km/h 96% 0.0 mm 0 W/m2
21:19 3.7 °C 3.1 °C 1035.2 hPa NNW 1.4 km/h 3.2 km/h 96% 0.0 mm 0 W/m2
21:24 3.7 °C 3.1 °C 1035.2 hPa North 1.4 km/h 3.2 km/h 96% 0.0 mm 0 W/m2
21:29 3.6 °C 3 °C 1035.2 hPa NNW 4.7 km/h 4.8 km/h 96% 0.0 mm 0 W/m2
21:34 3.6 °C 3 °C 1035.6 hPa Calm   8 km/h 96% 0.0 mm 0 W/m2
21:39 3.6 °C 3 °C 1035.2 hPa Calm   3.2 km/h 96% 0.0 mm 0 W/m2
21:44 3.5 °C 2.9 °C 1035.6 hPa Calm   4.8 km/h 96% 0.0 mm 0 W/m2
21:49 3.4 °C 2.8 °C 1035.2 hPa North 3.2 km/h 4.8 km/h 96% 0.0 mm 0 W/m2
21:54 3.4 °C 2.8 °C 1035.6 hPa North 3.2 km/h 4.8 km/h 96% 0.0 mm 0 W/m2
21:59 3.4 °C 2.8 °C 1035.2 hPa ENE 6.4 km/h 9.7 km/h 96% 0.0 mm 0 W/m2
22:04 3.4 °C 2.8 °C 1035.2 hPa Calm   1.6 km/h 96% 0.0 mm 0 W/m2
22:09 3.4 °C 2.8 °C 1035.6 hPa Calm   9.7 km/h 96% 0.0 mm 0 W/m2
22:14 3.4 °C 2.8 °C 1035.2 hPa North 6.4 km/h 6.4 km/h 96% 0.0 mm 0 W/m2
22:19 3.4 °C 2.8 °C 1035.2 hPa North 1.4 km/h 3.2 km/h 96% 0.0 mm 0 W/m2
22:24 3.3 °C 2.7 °C 1035.2 hPa Calm   6.4 km/h 96% 0.0 mm 0 W/m2
22:29 3.3 °C 2.7 °C 1035.2 hPa West 3.2 km/h 4.8 km/h 96% 0.0 mm 0 W/m2
22:34 3.3 °C 2.7 °C 1035.2 hPa Calm   9.7 km/h 96% 0.0 mm 0 W/m2
22:39 3.3 °C 2.7 °C 1035.2 hPa NE 4.7 km/h 4.8 km/h 96% 0.0 mm 0 W/m2
22:44 3.3 °C 2.7 °C 1035.2 hPa North 1.4 km/h 4.8 km/h 96% 0.0 mm 0 W/m2
22:49 3.3 °C 2.7 °C 1035.2 hPa NNE 3.2 km/h 3.2 km/h 96% 0.0 mm 0 W/m2
22:54 3.2 °C 2.6 °C 1035.2 hPa North 3.2 km/h 3.2 km/h 96% 0.0 mm 0 W/m2
22:59 3.2 °C 2.6 °C 1035.2 hPa NNW 6.4 km/h 9.7 km/h 96% 0.0 mm 0 W/m2
23:04 3.2 °C 2.6 °C 1035.2 hPa NE 1.4 km/h 6.4 km/h 96% 0.0 mm 0 W/m2
23:09 3.2 °C 2.6 °C 1035.2 hPa NNE 9.7 km/h 9.7 km/h 96% 0.0 mm 0 W/m2
23:14 3.2 °C 2.6 °C 1035.2 hPa NE 3.2 km/h 4.8 km/h 96% 0.0 mm 0 W/m2
23:19 3.2 °C 2.6 °C 1035.2 hPa North 1.4 km/h 3.2 km/h 96% 0.0 mm 0 W/m2
23:24 3.2 °C 2.6 °C 1035.2 hPa NNW 3.2 km/h 4.8 km/h 96% 0.0 mm 0 W/m2
23:29 3.2 °C 2.8 °C 1035.2 hPa NNW 3.2 km/h 4.8 km/h 97% 0.0 mm 0 W/m2
23:34 3.1 °C 2.7 °C 1035.2 hPa North 3.2 km/h 3.2 km/h 97% 0.0 mm 0 W/m2
23:39 3.1 °C 2.7 °C 1035.2 hPa NNW 1.4 km/h 9.7 km/h 97% 0.0 mm 0 W/m2
23:44 3.1 °C 2.5 °C 1035.2 hPa Calm   3.2 km/h 96% 0.0 mm 0 W/m2
23:49 3.1 °C 2.5 °C 1035.2 hPa NE 3.2 km/h 9.7 km/h 96% 0.0 mm 0 W/m2
23:54 3 °C 2.4 °C 1035.2 hPa Calm   3.2 km/h 96% 0.0 mm 0 W/m2
23:59 3 °C 2.4 °C 1035.2 hPa NW 1.4 km/h 3.2 km/h 96% 0.0 mm 0 W/m2
Juneau County Weather
Compliments of Weather Underground - 4 mb